Odesskoe, Russia
Current Conditions -  °F | °C
As of 4:30 PM on Sunday 21 Dec 2014 (Local Time) from UNOO Reporting Station
Overcast Overcast  
Wind Chill: 13°   Ceiling: 1200
Heat Index: 23°   Visibility: 4mi
Dew Point: 19°   Wind: 9mph
Humidity: 86%   Direction: 190°S
Pressure: 30"   Gusts: NA
Location:  54.2°N, 72.97°E
Report Text: UNOO 211030Z 19004MPS 6000 BKN012 OVC066 M05/M07 Q1016 25490535NOSIG RMK QFE754
Loading
Personal Weather Stations






























Interactive Weather Map New forecast layout! Learn more

10-Day Weather Forecast

Advertisements
Track Severe Weather on mobile